Terminal Aerodrome Forecast
Issued by NWS

Home | Current Version | Previous Version | Text Only | Print | Product List | Glossary On
Versions: 1 2 3 4 5 6 7 8 9 10 11 12 13 14
000
FTUS42 KTBW 250545
TAFPIE
TAF
KPIE 250545Z 2506/2606 10012KT P6SM SCT060 SCT250
     FM250900 11008KT P6SM FEW015 SCT250
     FM251400 12012KT P6SM SCT030 SCT250
     FM252000 31007KT P6SM VCTS BKN050CB BKN250
     FM260000 25007KT P6SM BKN050 BKN100
     FM260200 14007KT P6SM SCT040 SCT100 BKN250=

USA.gov is the U.S. government's official web portal to all federal, state and local government web resources and services.